Time;durP1;ratioP1;P1;durP2;ratioP2;P2;SDS_P1;SDS_P2;PMS_P1;PMS_P2;Temp;Humidity;BMP_temperature;BMP_pressure;BME280_temperature;BME280_humidity;BME280_pressure;Samples;Min_cycle;Max_cycle;Signal;HPM_P1;HPM_P2
2023/07/09 00:00:50;;;;;;;;;;;;;;;16.79;65.28;99352.77;107396;1256;72832;-38
2023/07/09 00:03:18;;;;;;;5.60;2.90;;;;;;;16.71;65.32;99348.90;107445;1256;60448;-38
2023/07/09 00:05:46;;;;;;;4.70;2.70;;;;;;;16.64;65.44;99343.71;107380;1256;59621;-38
2023/07/09 00:08:41;;;;;;;8.20;2.80;;;;;;;16.62;65.52;99342.70;107399;1257;73509;-38
2023/07/09 00:11:08;;;;;;;5.30;2.80;;;;;;;16.60;65.65;99344.98;107352;1259;67477;-39
2023/07/09 00:13:35;;;;;;;6.70;2.70;;;;;;;16.57;65.63;99342.77;107324;1257;73293;-38
2023/07/09 00:16:07;;;;;;;4.70;2.80;;;;;;;16.55;65.63;99344.73;107281;1256;60270;-38
2023/07/09 00:18:34;;;;;;;5.20;2.70;;;;;;;16.52;65.54;99341.94;107316;1256;59351;-38
2023/07/09 00:21:01;;;;;;;6.10;2.50;;;;;;;16.50;65.66;99342.27;107333;1256;73990;-38
2023/07/09 00:23:29;;;;;;;5.20;2.60;;;;;;;16.49;65.66;99347.04;107317;1256;68441;-38
2023/07/09 00:25:56;;;;;;;5.60;2.70;;;;;;;16.51;65.68;99348.52;107323;1257;73065;-38
2023/07/09 00:28:24;;;;;;;4.50;2.50;;;;;;;16.50;65.62;99343.28;107332;1256;60336;-38
2023/07/09 00:30:52;;;;;;;;;;;;;;;16.47;65.59;99344.70;107357;1256;60398;-38
2023/07/09 00:33:19;;;;;;;8.50;2.90;;;;;;;16.39;65.68;99343.27;107357;1256;73265;-39
2023/07/09 00:35:50;;;;;;;4.60;2.90;;;;;;;16.31;65.78;99342.52;107345;1255;67692;-38
2023/07/09 00:38:22;;;;;;;6.50;3.20;;;;;;;16.29;65.81;99340.27;107329;1257;72691;-38
2023/07/09 00:40:59;;;;;;;4.10;2.50;;;;;;;16.26;65.88;99341.06;107404;1257;61985;-38
2023/07/09 00:43:29;;;;;;;3.90;2.70;;;;;;;16.25;65.95;99339.82;107046;1256;60149;-38
2023/07/09 00:46:19;;;;;;;6.40;2.30;;;;;;;16.26;65.94;99338.24;107252;1257;74208;-38
2023/07/09 00:48:51;;;;;;;4.20;2.80;;;;;;;16.23;66.07;99339.11;107360;1256;68410;-38
2023/07/09 00:51:22;;;;;;;7.70;2.90;;;;;;;16.21;66.11;99342.26;107330;1256;73242;-39
2023/07/09 00:53:51;;;;;;;4.40;2.90;;;;;;;16.17;66.22;99339.21;107268;1257;60429;-39
2023/07/09 00:56:27;;;;;;;7.60;3.10;;;;;;;16.16;66.24;99338.29;107373;1258;60429;-38
2023/07/09 00:58:55;;;;;;;8.50;2.90;;;;;;;16.15;66.07;99337.20;107613;1253;74431;-38
2023/07/09 01:01:23;;;;;;;8.80;2.80;;;;;;;16.10;65.97;99339.64;107718;1252;67706;-39
2023/07/09 01:03:52;;;;;;;5.50;2.80;;;;;;;16.07;66.05;99344.88;107721;1253;71253;-39
2023/07/09 01:06:23;;;;;;;5.20;2.70;;;;;;;16.08;66.14;99344.89;107680;1253;60260;-39
2023/07/09 01:08:53;;;;;;;5.10;2.80;;;;;;;16.10;66.14;99345.03;107678;1253;60392;-38
2023/07/09 01:11:22;;;;;;;3.90;2.90;;;;;;;16.07;66.16;99343.01;107661;1253;73915;-38
2023/07/09 01:13:54;;;;;;;5.20;3.00;;;;;;;16.08;66.07;99350.27;107728;1252;67637;-38
2023/07/09 01:16:23;;;;;;;3.70;2.70;;;;;;;16.04;66.04;99344.27;107682;1252;73041;-38
2023/07/09 01:18:51;;;;;;;;;;;;;;;16.01;66.18;99344.75;107661;1253;60286;-39
2023/07/09 01:21:17;;;;;;;6.80;2.90;;;;;;;15.94;66.30;99350.70;107719;1252;60889;-38
2023/07/09 01:23:46;;;;;;;9.20;2.80;;;;;;;15.88;66.57;99351.20;107717;1251;74264;-38
2023/07/09 01:26:16;;;;;;;4.90;2.80;;;;;;;15.91;66.60;99354.08;107739;1252;67906;-39
2023/07/09 01:28:46;;;;;;;5.20;2.30;;;;;;;15.97;66.38;99350.08;107724;1254;73230;-39
2023/07/09 01:31:14;;;;;;;4.90;3.20;;;;;;;16.00;66.31;99350.61;107654;1253;60325;-38
2023/07/09 01:33:44;;;;;;;5.20;2.70;;;;;;;16.01;66.20;99349.67;107692;1252;60487;-38
2023/07/09 01:36:22;;;;;;;9.00;3.00;;;;;;;15.99;66.24;99343.89;107728;1253;73778;-38
2023/07/09 01:38:50;;;;;;;5.40;3.20;;;;;;;15.95;66.08;99343.44;107706;1253;68594;-39
2023/07/09 01:41:19;;;;;;;6.10;3.00;;;;;;;15.91;66.17;99341.98;107631;1253;73193;-38
2023/07/09 01:43:46;;;;;;;5.10;2.70;;;;;;;15.87;66.19;99339.17;107637;1257;61850;-39
2023/07/09 01:46:16;;;;;;;7.80;2.70;;;;;;;15.87;66.22;99341.89;107723;1253;60441;-38
2023/07/09 01:48:44;;;;;;;6.30;2.90;;;;;;;15.91;66.28;99339.69;107692;1254;74473;-39
2023/07/09 01:51:12;;;;;;;6.10;2.90;;;;;;;15.91;66.21;99348.14;107719;1253;68636;-39
2023/07/09 01:53:39;;;;;;;7.80;3.10;;;;;;;15.87;66.13;99354.79;107754;1256;72491;-39
2023/07/09 01:56:08;;;;;;;4.50;2.70;;;;;;;15.80;66.14;99354.02;107693;1253;60281;-39
2023/07/09 01:58:35;;;;;;;6.80;3.10;;;;;;;15.77;66.34;99353.88;107589;1253;60422;-39
2023/07/09 02:01:02;;;;;;;3.80;2.80;;;;;;;15.74;66.30;99353.73;107744;1256;73943;-38
2023/07/09 02:03:30;;;;;;;8.50;2.80;;;;;;;15.73;66.54;99353.20;107675;1252;68505;-38
2023/07/09 02:05:57;;;;;;;5.40;3.10;;;;;;;15.74;66.61;99359.52;107637;1253;73315;-38
2023/07/09 02:08:25;;;;;;;6.10;2.90;;;;;;;15.78;66.62;99364.49;107666;1256;60568;-38
2023/07/09 02:10:52;;;;;;;4.50;2.80;;;;;;;15.79;66.58;99365.66;107673;1254;61107;-38
2023/07/09 02:13:18;;;;;;;5.70;3.40;;;;;;;15.79;66.51;99367.52;107684;1251;74395;-38
2023/07/09 02:15:45;;;;;;;7.40;3.10;;;;;;;15.79;66.55;99367.85;107698;1254;67987;-38
2023/07/09 02:18:15;;;;;;;7.20;3.30;;;;;;;15.79;66.42;99370.58;107610;1253;73247;-38
2023/07/09 02:20:42;;;;;;;4.60;3.00;;;;;;;15.77;66.41;99374.18;107685;1254;60387;-38
2023/07/09 02:23:09;;;;;;;6.60;3.00;;;;;;;15.75;66.38;99374.65;107669;1253;60295;-38
2023/07/09 02:25:37;;;;;;;6.90;3.30;;;;;;;15.76;66.38;99376.30;107666;1254;74497;-38
2023/07/09 02:28:04;;;;;;;4.20;2.70;;;;;;;15.78;66.29;99379.48;107665;1251;68143;-38
2023/07/09 02:30:31;;;;;;;4.30;2.60;;;;;;;15.78;66.27;99377.38;107647;1254;73272;-38
2023/07/09 02:32:58;;;;;;;5.40;2.60;;;;;;;15.78;66.39;99383.94;107582;1253;60463;-38
2023/07/09 02:35:24;;;;;;;4.00;2.90;;;;;;;15.76;66.37;99383.41;107743;1256;60420;-38
2023/07/09 02:37:51;;;;;;;4.00;3.10;;;;;;;15.71;66.48;99386.14;107619;1251;74268;-38
2023/07/09 02:40:18;;;;;;;6.60;3.40;;;;;;;15.67;66.53;99382.40;107698;1253;68671;-38
2023/07/09 02:42:46;;;;;;;8.10;3.40;;;;;;;15.65;66.72;99384.51;107718;1253;72547;-38
2023/07/09 02:45:12;;;;;;;5.00;2.80;;;;;;;15.65;66.70;99382.55;107670;1253;61988;-38
2023/07/09 02:47:41;;;;;;;5.70;3.00;;;;;;;15.65;66.72;99391.23;107719;1253;60394;-38
2023/07/09 02:50:08;;;;;;;8.30;2.80;;;;;;;15.63;66.83;99389.82;107768;1254;74443;-38
2023/07/09 02:52:35;;;;;;;6.20;3.40;;;;;;;15.61;66.99;99392.01;107725;1253;67928;-38
2023/07/09 02:55:02;;;;;;;5.40;2.70;;;;;;;15.59;67.16;99390.14;107723;1252;73217;-38
2023/07/09 02:57:29;;;;;;;5.90;3.10;;;;;;;15.60;67.08;99393.64;107705;1256;60323;-38
2023/07/09 02:59:55;;;;;;;6.50;3.00;;;;;;;15.58;67.10;99389.83;107687;1253;60412;-38
2023/07/09 03:02:23;;;;;;;4.90;2.90;;;;;;;15.59;67.10;99393.58;107710;1253;74438;-38
2023/07/09 03:04:50;;;;;;;4.60;2.50;;;;;;;15.63;67.13;99390.99;107695;1253;68364;-38
2023/07/09 03:07:17;;;;;;;5.70;3.10;;;;;;;15.64;67.19;99394.20;107702;1254;73155;-38
2023/07/09 03:09:44;;;;;;;5.10;2.90;;;;;;;15.65;67.30;99395.13;107731;1253;60421;-38
2023/07/09 03:12:11;;;;;;;5.40;2.90;;;;;;;15.65;67.09;99393.80;107706;1256;60417;-38
2023/07/09 03:14:39;;;;;;;5.40;3.00;;;;;;;15.61;67.30;99395.05;107607;1253;74280;-38
2023/07/09 03:17:06;;;;;;;4.30;2.90;;;;;;;15.63;67.46;99388.89;107719;1253;68208;-37
2023/07/09 03:19:33;;;;;;;5.10;2.90;;;;;;;15.70;67.38;99391.53;107687;1256;73166;-38
2023/07/09 03:22:03;;;;;;;;;;;;;;;15.78;67.31;99387.30;107634;1254;60332;-38
2023/07/09 03:24:32;;;;;;;6.40;2.90;;;;;;;15.77;67.12;99390.11;107772;1256;60422;-38
2023/07/09 03:26:58;;;;;;;4.50;3.00;;;;;;;15.75;67.27;99389.97;107617;1254;74348;-38
2023/07/09 03:29:25;;;;;;;6.10;2.90;;;;;;;15.80;67.25;99391.44;107747;1255;67904;-38
2023/07/09 03:31:52;;;;;;;5.40;3.20;;;;;;;15.82;67.09;99388.54;107728;1256;73018;-38
2023/07/09 03:34:19;;;;;;;5.60;3.30;;;;;;;15.80;66.82;99391.83;107756;1254;60364;-38
2023/07/09 03:36:46;;;;;;;4.40;2.80;;;;;;;15.80;66.96;99391.27;107721;1251;60411;-38
2023/07/09 03:39:13;;;;;;;7.90;2.80;;;;;;;15.83;67.08;99387.84;107732;1253;74393;-38
2023/07/09 03:41:40;;;;;;;6.90;3.20;;;;;;;15.90;66.91;99382.82;107702;1253;68391;-38
2023/07/09 03:44:07;;;;;;;6.10;3.30;;;;;;;15.93;66.82;99385.39;107686;1256;72997;-38
2023/07/09 03:46:33;;;;;;;6.30;2.80;;;;;;;15.96;67.07;99386.16;107705;1255;60332;-38
2023/07/09 03:49:00;;;;;;;5.70;3.30;;;;;;;15.99;66.77;99383.58;107722;1253;60438;-37
2023/07/09 03:51:27;;;;;;;4.70;3.30;;;;;;;16.03;66.82;99384.59;107735;1253;74386;-37
2023/07/09 03:53:54;;;;;;;5.70;3.20;;;;;;;16.03;66.67;99386.54;107751;1254;67976;-37
2023/07/09 03:56:21;;;;;;;5.30;3.10;;;;;;;16.07;66.55;99383.79;107733;1253;72750;-38
2023/07/09 03:58:48;;;;;;;4.00;2.90;;;;;;;16.17;66.39;99378.23;107715;1253;60531;-38
2023/07/09 04:01:16;;;;;;;8.60;3.00;;;;;;;16.27;66.40;99383.10;107724;1253;60379;-38
2023/07/09 04:03:43;;;;;;;3.90;2.70;;;;;;;16.34;66.10;99381.05;107709;1256;74390;-38
2023/07/09 04:06:09;;;;;;;5.60;3.20;;;;;;;16.40;65.91;99384.52;107767;1254;67952;-38
2023/07/09 04:08:36;;;;;;;7.10;3.30;;;;;;;16.47;65.94;99382.47;107742;1254;72705;-38
2023/07/09 04:11:03;;;;;;;6.90;3.40;;;;;;;16.53;65.75;99383.55;107722;1254;60300;-38
2023/07/09 04:13:31;;;;;;;5.90;2.70;;;;;;;16.58;65.91;99382.52;107688;1254;60367;-38
2023/07/09 04:15:58;;;;;;;5.70;3.00;;;;;;;16.67;65.57;99380.84;107709;1254;73797;-38
2023/07/09 04:18:25;;;;;;;5.80;2.70;;;;;;;16.73;65.17;99380.89;107701;1254;68222;-38
2023/07/09 04:20:52;;;;;;;5.50;3.40;;;;;;;16.82;65.18;99383.65;107700;1254;73250;-38
2023/07/09 04:23:19;;;;;;;6.30;3.30;;;;;;;16.88;65.07;99382.66;107686;1254;60273;-38
2023/07/09 04:25:45;;;;;;;5.40;3.20;;;;;;;16.98;65.03;99389.42;107709;1251;60402;-38
2023/07/09 04:28:14;;;;;;;3.60;2.90;;;;;;;17.07;64.21;99386.38;107758;1256;74390;-38
2023/07/09 04:30:51;;;;;;;6.10;3.40;;;;;;;17.13;63.93;99390.25;107800;1253;66411;-38
2023/07/09 04:33:18;;;;;;;6.40;3.20;;;;;;;17.19;63.77;99388.25;107746;1254;73170;-38
2023/07/09 04:35:46;;;;;;;6.70;3.40;;;;;;;17.24;63.42;99389.47;107767;1255;60446;-38
2023/07/09 04:38:14;;;;;;;4.50;2.70;;;;;;;17.28;63.13;99391.16;107720;1256;60072;-38
2023/07/09 04:40:41;;;;;;;6.30;3.00;;;;;;;17.35;62.48;99392.27;107759;1253;73664;-39
2023/07/09 04:43:08;;;;;;;5.10;2.90;;;;;;;17.44;62.34;99393.69;107746;1256;68267;-38
2023/07/09 04:45:35;;;;;;;5.20;2.90;;;;;;;17.54;62.07;99391.81;107682;1254;73263;-39
2023/07/09 04:48:02;;;;;;;5.60;3.10;;;;;;;17.63;61.63;99391.44;107700;1256;60341;-38
2023/07/09 04:50:29;;;;;;;4.50;3.00;;;;;;;17.72;61.70;99390.80;107705;1255;60383;-38
2023/07/09 04:52:56;;;;;;;6.40;3.30;;;;;;;17.82;60.80;99391.10;107694;1256;74363;-38
2023/07/09 04:55:22;;;;;;;5.40;3.00;;;;;;;17.89;61.06;99389.77;107771;1254;67961;-39
2023/07/09 04:57:49;;;;;;;6.10;2.50;;;;;;;17.96;61.13;99390.88;107699;1253;73261;-38
2023/07/09 05:00:16;;;;;;;5.10;2.90;;;;;;;18.02;61.04;99387.61;107779;1251;60162;-39
2023/07/09 05:02:43;;;;;;;5.50;3.00;;;;;;;18.09;60.41;99388.77;107716;1251;60376;-39
2023/07/09 05:05:11;;;;;;;6.10;3.10;;;;;;;18.12;59.55;99387.58;107750;1254;74127;-39
2023/07/09 05:07:39;;;;;;;7.00;2.80;;;;;;;18.12;59.28;99386.86;107676;1255;68250;-39
2023/07/09 05:10:07;;;;;;;4.50;2.80;;;;;;;18.16;59.40;99385.48;107705;1254;72542;-38
2023/07/09 05:12:34;;;;;;;6.60;3.00;;;;;;;18.23;58.76;99385.88;107705;1251;60364;-39
2023/07/09 05:15:01;;;;;;;4.00;2.50;;;;;;;18.29;58.86;99384.31;107730;1256;60453;-38
2023/07/09 05:17:28;;;;;;;4.70;2.80;;;;;;;18.34;58.23;99381.98;107722;1256;74460;-38
2023/07/09 05:19:55;;;;;;;4.30;2.70;;;;;;;18.40;58.08;99378.30;107704;1254;67995;-38
2023/07/09 05:22:22;;;;;;;5.80;2.50;;;;;;;18.47;58.29;99380.02;107689;1256;73227;-38
2023/07/09 05:24:49;;;;;;;4.80;2.80;;;;;;;18.53;58.65;99378.63;107701;1256;60535;-38
2023/07/09 05:27:15;;;;;;;7.50;2.80;;;;;;;18.59;58.61;99379.10;107723;1254;60370;-38
2023/07/09 05:29:42;;;;;;;5.80;2.60;;;;;;;18.65;58.80;99384.13;107709;1254;74284;-38
2023/07/09 05:32:09;;;;;;;4.10;2.70;;;;;;;18.72;58.27;99380.73;107708;1255;68332;-38
2023/07/09 05:34:36;;;;;;;3.50;2.30;;;;;;;18.85;58.19;99380.08;107666;1254;72953;-38
2023/07/09 05:37:03;;;;;;;3.70;2.70;;;;;;;18.98;57.77;99379.81;107707;1256;60310;-38
2023/07/09 05:39:30;;;;;;;3.60;2.40;;;;;;;19.11;57.68;99378.60;107684;1256;60423;-38
2023/07/09 05:41:57;;;;;;;4.80;2.40;;;;;;;19.21;57.16;99377.58;107721;1256;73744;-38
2023/07/09 05:44:24;;;;;;;3.30;2.40;;;;;;;19.31;57.15;99379.44;107688;1254;68665;-38
2023/07/09 05:46:51;;;;;;;4.10;2.60;;;;;;;19.42;57.02;99376.77;107700;1254;73182;-38
2023/07/09 05:49:18;;;;;;;4.80;3.00;;;;;;;19.51;57.04;99382.92;107703;1256;61003;-38
2023/07/09 05:51:44;;;;;;;5.30;2.60;;;;;;;19.61;56.64;99382.99;107704;1251;60514;-38
2023/07/09 05:54:12;;;;;;;4.00;2.70;;;;;;;19.70;55.51;99382.36;107665;1254;74396;-38
2023/07/09 05:56:39;;;;;;;4.60;2.60;;;;;;;19.79;55.28;99377.41;107701;1256;67973;-38
2023/07/09 05:59:06;;;;;;;5.00;2.40;;;;;;;19.88;55.75;99381.17;107644;1253;73100;-38
2023/07/09 06:01:33;;;;;;;3.60;2.60;;;;;;;19.98;56.11;99378.32;107685;1256;60456;-38
2023/07/09 06:04:00;;;;;;;3.80;2.50;;;;;;;20.08;54.86;99378.44;107716;1254;60427;-38
2023/07/09 06:06:28;;;;;;;3.90;2.50;;;;;;;20.17;54.67;99374.96;107661;1254;74408;-38
2023/07/09 06:08:54;;;;;;;5.00;2.40;;;;;;;20.25;53.66;99373.45;107695;1254;67167;-38
2023/07/09 06:11:21;;;;;;;3.20;2.20;;;;;;;20.36;53.93;99374.91;107683;1255;73178;-38
2023/07/09 06:13:48;;;;;;;3.20;2.20;;;;;;;20.45;53.63;99374.33;107705;1255;60361;-38
2023/07/09 06:16:15;;;;;;;3.80;2.30;;;;;;;20.54;53.58;99368.02;107724;1251;60404;-38
2023/07/09 06:18:42;;;;;;;4.40;1.90;;;;;;;20.62;53.14;99366.88;107698;1256;74593;-38
2023/07/09 06:21:11;;;;;;;3.10;2.20;;;;;;;20.71;53.59;99372.43;107737;1255;68005;-38
2023/07/09 06:23:38;;;;;;;3.20;1.90;;;;;;;20.80;53.31;99371.36;107776;1255;72513;-39
2023/07/09 06:26:05;;;;;;;2.10;1.60;;;;;;;20.89;52.71;99369.75;107713;1254;60676;-38
2023/07/09 06:28:32;;;;;;;4.70;2.00;;;;;;;20.99;51.54;99365.98;107791;1253;60393;-38
2023/07/09 06:31:00;;;;;;;4.10;2.10;;;;;;;21.07;51.20;99367.20;107700;1255;73503;-38
2023/07/09 06:33:28;;;;;;;3.80;2.00;;;;;;;21.15;51.57;99363.27;107712;1254;67692;-38
2023/07/09 06:36:13;;;;;;;2.90;2.00;;;;;;;21.27;51.67;99360.04;104165;1293;600113;-39
2023/07/09 06:38:41;;;;;;;4.00;2.00;;;;;;;21.38;50.80;99364.13;106496;1271;60520;-39
2023/07/09 06:41:09;;;;;;;4.40;2.00;;;;;;;21.44;50.82;99361.91;106576;1272;59301;-38
2023/07/09 06:43:38;;;;;;;2.70;1.70;;;;;;;21.52;51.00;99362.43;106570;1267;71237;-39
2023/07/09 06:46:07;;;;;;;3.20;1.80;;;;;;;21.59;49.85;99356.57;106579;1271;66283;-38
2023/07/09 06:48:38;;;;;;;2.90;1.80;;;;;;;21.65;49.70;99357.12;106529;1269;72798;-38
2023/07/09 06:51:06;;;;;;;2.10;1.90;;;;;;;21.72;49.31;99357.34;106475;1267;59895;-38
2023/07/09 06:53:34;;;;;;;4.90;1.90;;;;;;;21.80;48.66;99352.16;106640;1264;59234;-38
2023/07/09 06:56:01;;;;;;;2.10;1.60;;;;;;;21.86;48.11;99349.94;106699;1264;70986;-38
2023/07/09 06:58:33;;;;;;;2.80;1.60;;;;;;;21.92;47.86;99348.98;106661;1264;67594;-39
2023/07/09 07:01:03;;;;;;;3.10;1.80;;;;;;;21.99;47.78;99345.03;106693;1264;72822;-38
2023/07/09 07:03:32;;;;;;;4.80;1.60;;;;;;;22.07;47.60;99350.48;106706;1267;59621;-38
2023/07/09 07:06:00;;;;;;;2.40;1.80;;;;;;;22.18;48.46;99351.38;106791;1264;60039;-38
2023/07/09 07:08:28;;;;;;;3.40;1.90;;;;;;;22.27;48.72;99351.04;106755;1264;73034;-39
2023/07/09 07:11:01;;;;;;;3.20;1.70;;;;;;;22.39;47.53;99348.40;106737;1264;66474;-39
2023/07/09 07:13:34;;;;;;;2.60;1.80;;;;;;;22.46;47.12;99352.59;106755;1269;72687;-39
2023/07/09 07:16:07;;;;;;;2.80;1.60;;;;;;;22.53;47.60;99353.66;106693;1265;60092;-38
2023/07/09 07:18:35;;;;;;;3.40;1.70;;;;;;;22.61;47.90;99355.31;106662;1264;59590;-39
2023/07/09 07:21:04;;;;;;;3.10;1.60;;;;;;;22.72;47.05;99357.45;106655;1264;73107;-39
2023/07/09 07:23:32;;;;;;;4.80;1.70;;;;;;;22.81;46.09;99360.35;106761;1264;66785;-39
2023/07/09 07:25:59;;;;;;;2.40;1.50;;;;;;;22.88;46.46;99361.70;106736;1264;71137;-39
2023/07/09 07:28:27;;;;;;;5.30;1.60;;;;;;;22.96;46.15;99352.45;106749;1264;60081;-38
2023/07/09 07:31:01;;;;;;;2.30;1.70;;;;;;;23.01;46.64;99352.86;106757;1264;60341;-38
2023/07/09 07:33:29;;;;;;;3.00;1.70;;;;;;;23.06;46.68;99351.73;106773;1269;73048;-39
2023/07/09 07:35:57;;;;;;;2.40;1.40;;;;;;;23.12;47.70;99352.48;106746;1267;67650;-39
2023/07/09 07:38:27;;;;;;;2.50;1.70;;;;;;;23.23;45.72;99351.73;106729;1266;72724;-38
2023/07/09 07:40:54;;;;;;;6.10;1.80;;;;;;;23.34;46.18;99353.64;106727;1270;59564;-38
2023/07/09 07:43:22;;;;;;;5.80;1.50;;;;;;;23.46;45.19;99351.46;106740;1267;60090;-38
2023/07/09 07:45:50;;;;;;;1.90;1.50;;;;;;;23.55;45.52;99349.42;106743;1267;73514;-38
2023/07/09 07:48:17;;;;;;;3.60;1.70;;;;;;;23.65;44.67;99345.70;106735;1264;67883;-38
2023/07/09 07:50:47;;;;;;;4.00;1.60;;;;;;;23.71;44.44;99342.45;106690;1268;73023;-38
2023/07/09 07:53:15;;;;;;;2.50;1.30;;;;;;;23.82;44.74;99337.28;106639;1269;61256;-38
2023/07/09 07:55:43;;;;;;;1.70;1.30;;;;;;;23.93;44.20;99337.44;106679;1270;59755;-38
2023/07/09 07:58:11;;;;;;;3.10;1.30;;;;;;;24.05;43.86;99336.66;106715;1267;73086;-38
2023/07/09 08:00:39;;;;;;;3.30;1.50;;;;;;;24.17;43.17;99332.94;106696;1270;66306;-38
2023/07/09 08:03:07;;;;;;;3.10;1.40;;;;;;;24.27;43.04;99329.71;106703;1267;72704;-38
2023/07/09 08:05:35;;;;;;;3.80;1.50;;;;;;;24.35;43.06;99335.02;106705;1267;60370;-38
2023/07/09 08:08:04;;;;;;;3.70;1.30;;;;;;;24.43;42.72;99331.56;106638;1266;60021;-38
2023/07/09 08:10:31;;;;;;;4.00;1.50;;;;;;;24.49;43.07;99322.63;106721;1266;71765;-39
2023/07/09 08:12:59;;;;;;;2.90;1.40;;;;;;;24.56;42.13;99325.94;106710;1267;67611;-39
2023/07/09 08:15:27;;;;;;;2.20;1.60;;;;;;;24.60;41.76;99322.17;106686;1267;71468;-39
2023/07/09 08:19:58;;;;;;;2.80;1.40;;;;;;;24.73;43.05;99324.77;104220;1290;601718;-38
2023/07/09 08:22:26;;;;;;;2.00;1.50;;;;;;;24.77;41.94;99329.47;106631;1266;60284;-38
2023/07/09 08:24:53;;;;;;;2.20;1.70;;;;;;;24.78;42.46;99325.31;106690;1266;59333;-39
2023/07/09 08:27:21;;;;;;;5.40;2.00;;;;;;;24.80;41.83;99325.92;106614;1265;72422;-39
2023/07/09 08:29:48;;;;;;;4.90;1.60;;;;;;;24.84;41.63;99319.34;106553;1266;67332;-39
2023/07/09 08:32:16;;;;;;;2.70;1.60;;;;;;;24.91;41.83;99324.66;106628;1267;72723;-39
2023/07/09 08:34:43;;;;;;;3.50;1.70;;;;;;;24.97;40.61;99325.13;106638;1267;133388;-39
2023/07/09 08:37:31;;;;;;;5.30;1.90;;;;;;;25.01;40.40;99322.25;106828;1263;60049;-39
2023/07/09 08:39:59;;;;;;;2.00;1.50;;;;;;;25.07;40.28;99322.48;106838;1263;71497;-39
2023/07/09 08:42:33;;;;;;;3.30;1.60;;;;;;;25.13;39.36;99325.73;106862;1263;67927;-39
2023/07/09 08:45:54;;;;;;;3.30;1.40;;;;;;;25.20;39.17;99319.09;106827;1263;72688;-39
2023/07/09 08:48:32;;;;;;;2.30;1.40;;;;;;;25.33;39.67;99324.36;106841;1263;60080;-38
2023/07/09 08:51:09;;;;;;;2.20;1.30;;;;;;;25.43;38.93;99319.46;106831;1263;59586;-39
2023/07/09 08:53:46;;;;;;;3.60;1.60;;;;;;;25.56;38.32;99317.77;106844;1262;72809;-38
2023/07/09 08:56:13;;;;;;;4.30;1.50;;;;;;;25.66;39.20;99318.77;106948;1263;67614;-38
2023/07/09 08:58:41;;;;;;;2.20;1.50;;;;;;;25.75;38.37;99316.05;106802;1263;71076;-39
2023/07/09 09:01:39;;;;;;;2.90;1.50;;;;;;;25.86;38.93;99317.56;106838;1263;60094;-39
2023/07/09 09:04:15;;;;;;;2.00;1.50;;;;;;;26.01;38.28;99318.52;106802;1263;60032;-39
2023/07/09 09:06:45;;;;;;;5.50;1.70;;;;;;;26.06;36.82;99319.37;106811;1262;75301;-39
2023/07/09 09:09:57;;;;;;;3.50;1.60;;;;;;;26.09;37.55;99309.23;106842;1263;67277;-38
2023/07/09 09:12:40;;;;;;;2.60;1.80;;;;;;;26.12;38.32;99313.64;106569;1263;72844;-38
2023/07/09 09:15:18;;;;;;;3.90;1.70;;;;;;;26.09;37.39;99310.14;106833;1263;60096;-38
2023/07/09 09:17:46;;;;;;;2.70;1.70;;;;;;;26.00;36.56;99313.93;106799;1263;60050;-39
2023/07/09 09:20:18;;;;;;;2.60;1.50;;;;;;;25.89;36.36;99310.84;106761;1263;73047;-38
2023/07/09 09:23:10;;;;;;;2.60;1.60;;;;;;;25.82;37.55;99317.20;106770;1263;67933;-38
2023/07/09 09:25:41;;;;;;;3.40;1.40;;;;;;;25.81;37.74;99307.08;106764;1263;72770;-38
2023/07/09 09:28:09;;;;;;;2.70;1.60;;;;;;;25.85;38.17;99301.02;106791;1263;60111;-39
2023/07/09 09:30:36;;;;;;;2.50;1.60;;;;;;;25.96;38.57;99298.58;106832;1263;60023;-38
2023/07/09 09:33:08;;;;;;;7.30;1.80;;;;;;;26.08;38.21;99297.85;106733;1262;73078;-38
2023/07/09 09:35:41;;;;;;;3.10;1.60;;;;;;;26.22;38.33;99299.52;106778;1263;67567;-39
2023/07/09 09:38:13;;;;;;;2.10;1.60;;;;;;;26.33;37.63;99306.98;106901;1266;71486;-38
2023/07/09 09:40:40;;;;;;;3.10;1.70;;;;;;;26.37;36.09;99305.27;106854;1263;60084;-39
2023/07/09 09:43:14;;;;;;;2.00;1.70;;;;;;;26.36;35.72;99308.58;106874;1263;60247;-39
2023/07/09 09:45:43;;;;;;;7.00;1.50;;;;;;;26.35;36.27;99312.91;106907;1263;73518;-39
2023/07/09 09:48:19;;;;;;;4.10;1.50;;;;;;;26.34;35.51;99314.60;106831;1263;66678;-39
2023/07/09 09:50:47;;;;;;;3.30;1.80;;;;;;;26.34;35.50;99308.03;106884;1263;72672;-39
2023/07/09 09:53:22;;;;;;;3.00;1.60;;;;;;;26.37;35.78;99304.63;107371;1256;60255;-39
2023/07/09 09:55:54;;;;;;;2.10;1.60;;;;;;;26.38;36.83;99306.27;107156;1257;59472;-39
2023/07/09 09:58:27;;;;;;;2.10;1.50;;;;;;;26.36;37.35;99305.39;107171;1256;73108;-39
2023/07/09 10:00:56;;;;;;;2.10;1.30;;;;;;;26.34;37.47;99305.46;107243;1256;67579;-39
2023/07/09 10:03:34;;;;;;;2.90;1.40;;;;;;;26.30;36.93;99302.48;107233;1256;73090;-39
2023/07/09 10:06:36;;;;;;;2.60;1.50;;;;;;;26.21;37.88;99303.85;107291;1256;60044;-39
2023/07/09 10:09:12;;;;;;;2.40;1.60;;;;;;;26.25;38.83;99298.77;107157;1255;60045;-39
2023/07/09 10:11:49;;;;;;;3.70;1.50;;;;;;;26.35;37.21;99300.89;107253;1256;71729;-39
2023/07/09 10:14:54;;;;;;;3.20;1.50;;;;;;;26.39;36.56;99296.13;107303;1257;67909;-39
2023/07/09 10:17:36;;;;;;;4.90;1.70;;;;;;;26.34;37.00;99295.09;107348;1256;72697;-39
2023/07/09 10:20:26;;;;;;;5.10;1.90;;;;;;;26.34;37.09;99298.18;107196;1258;59367;-38
2023/07/09 10:23:31;;;;;;;5.20;1.60;;;;;;;26.50;36.32;99295.69;107229;1259;60219;-38
2023/07/09 10:26:15;;;;;;;3.40;2.10;;;;;;;26.62;36.12;99295.21;107068;1257;73025;-39
2023/07/09 10:28:49;;;;;;;9.60;2.30;;;;;;;26.57;36.10;99296.39;107172;1261;67927;-39
2023/07/09 10:31:39;;;;;;;3.10;1.80;;;;;;;26.49;35.89;99295.04;107082;1259;71354;-39
2023/07/09 10:34:16;;;;;;;2.60;1.70;;;;;;;26.56;36.90;99295.36;107197;1259;60507;-39
2023/07/09 10:37:22;;;;;;;3.10;2.00;;;;;;;26.75;35.97;99286.22;107121;1257;60069;-39
2023/07/09 10:39:57;;;;;;;3.10;2.00;;;;;;;27.05;35.85;99288.61;107130;1259;73121;-39
2023/07/09 10:42:32;;;;;;;3.10;1.60;;;;;;;27.27;35.69;99295.42;107067;1259;67617;-39
2023/07/09 10:45:03;;;;;;;2.20;1.70;;;;;;;27.51;34.34;99297.20;107052;1263;72727;-39
2023/07/09 10:47:39;;;;;;;2.60;2.00;;;;;;;27.67;34.65;99302.58;107206;1261;60092;-39
2023/07/09 10:50:12;;;;;;;2.10;1.70;;;;;;;27.84;34.22;99296.73;107246;1259;60040;-39
2023/07/09 10:52:41;;;;;;;5.20;1.60;;;;;;;28.04;33.45;99291.47;107266;1259;73124;-39
2023/07/09 10:55:16;;;;;;;4.30;2.00;;;;;;;28.20;33.09;99294.69;107198;1258;68068;-39
2023/07/09 10:57:57;;;;;;;3.30;1.90;;;;;;;28.35;33.33;99291.01;107064;1257;72720;-39
2023/07/09 11:00:37;;;;;;;3.60;1.60;;;;;;;28.54;32.57;99290.11;107172;1257;60051;-39
2023/07/09 11:03:39;;;;;;;2.20;1.60;;;;;;;28.73;32.51;99290.72;107081;1258;59804;-39
2023/07/09 11:06:22;;;;;;;3.60;2.00;;;;;;;28.93;31.77;99286.15;107003;1259;73548;-39
2023/07/09 11:08:51;;;;;;;3.20;1.90;;;;;;;29.06;31.89;99283.13;107019;1259;66313;-39
2023/07/09 11:11:28;;;;;;;1.60;1.50;;;;;;;29.20;30.84;99280.78;107288;1259;72721;-39
2023/07/09 11:14:00;;;;;;;4.10;1.70;;;;;;;29.24;31.11;99276.36;107192;1258;60046;-39
2023/07/09 11:16:31;;;;;;;4.00;2.30;;;;;;;29.32;30.84;99277.29;107162;1259;60222;-39
2023/07/09 11:19:00;;;;;;;2.20;1.70;;;;;;;29.50;31.62;99278.33;107241;1259;73058;-39
2023/07/09 11:21:28;;;;;;;3.20;1.70;;;;;;;29.66;31.77;99277.30;107291;1255;67572;-39
2023/07/09 11:24:00;;;;;;;3.80;1.90;;;;;;;29.68;30.87;99279.90;107228;1256;72725;-39
2023/07/09 11:26:28;;;;;;;3.70;2.00;;;;;;;29.55;30.64;99272.44;107312;1256;60412;-39
2023/07/09 11:29:15;;;;;;;2.90;2.00;;;;;;;29.28;30.55;99268.65;107372;1256;60089;-39
2023/07/09 11:31:46;;;;;;;4.40;1.90;;;;;;;29.04;31.43;99277.20;107231;1257;72219;-39
2023/07/09 11:34:18;;;;;;;3.60;1.80;;;;;;;29.01;31.06;99270.26;107445;1257;67572;-39
2023/07/09 11:36:55;;;;;;;3.00;2.10;;;;;;;29.05;31.07;99268.43;107482;1256;72664;-39
2023/07/09 11:39:35;;;;;;;2.80;2.00;;;;;;;29.20;31.81;99272.50;107228;1256;60079;-39
2023/07/09 11:42:04;;;;;;;3.80;1.70;;;;;;;29.27;32.09;99270.77;107296;1256;60047;-39
2023/07/09 11:44:32;;;;;;;4.60;1.90;;;;;;;29.43;32.26;99265.24;107244;1256;73075;-40